Time;durP1;ratioP1;P1;durP2;ratioP2;P2;SDS_P1;SDS_P2;PMS_P1;PMS_P2;Temp;Humidity;BMP_temperature;BMP_pressure;BME280_temperature;BME280_humidity;BME280_pressure;Samples;Min_cycle;Max_cycle;Signal;HPM_P1;HPM_P2
2022/04/09 00:01:21;;;;;;;0.10;0.10;;;4.40;99.90;;;;;;5073592;28;20037;-81
2022/04/09 00:03:48;;;;;;;0.10;0.10;;;3.90;99.90;;;;;;5073639;28;20496;-80
2022/04/09 00:06:15;;;;;;;0.15;0.15;;;3.90;99.90;;;;;;5073222;28;20177;-82
2022/04/09 00:08:41;;;;;;;0.10;0.10;;;3.90;99.90;;;;;;5053110;28;20403;-79
2022/04/09 00:11:08;;;;;;;0.20;0.20;;;4.10;99.90;;;;;;5084967;28;20053;-81
2022/04/09 00:13:36;;;;;;;0.20;0.20;;;3.80;99.90;;;;;;5089404;28;20044;-81
2022/04/09 00:16:03;;;;;;;0.10;0.10;;;3.80;99.90;;;;;;5089714;28;20032;-79
2022/04/09 00:18:30;;;;;;;0.10;0.10;;;3.80;99.90;;;;;;5089630;28;20044;-79
2022/04/09 00:20:56;;;;;;;0.10;0.10;;;3.80;99.90;;;;;;5089679;28;20488;-81
2022/04/09 00:23:23;;;;;;;0.15;0.15;;;3.80;99.90;;;;;;5089572;28;20048;-80
2022/04/09 00:25:50;;;;;;;0.20;0.20;;;3.80;99.90;;;;;;5106250;28;20143;-82
2022/04/09 00:28:17;;;;;;;0.10;0.10;;;3.70;99.90;;;;;;5099704;28;20132;-81
2022/04/09 00:30:44;;;;;;;0.20;0.20;;;3.70;99.90;;;;;;5049992;28;20049;-79
2022/04/09 00:33:11;;;;;;;0.10;0.10;;;4.20;99.90;;;;;;5033273;28;20221;-80
2022/04/09 00:35:37;;;;;;;0.17;0.17;;;3.90;99.90;;;;;;5049577;28;20052;-81
2022/04/09 00:38:04;;;;;;;0.20;0.20;;;3.80;99.90;;;;;;5069996;28;20492;-81
2022/04/09 00:40:31;;;;;;;0.10;0.10;;;3.70;99.90;;;;;;5052803;28;20041;-81
2022/04/09 00:42:58;;;;;;;0.20;0.20;;;3.70;99.90;;;;;;5069446;28;20041;-81
2022/04/09 00:45:24;;;;;;;0.20;0.20;;;3.70;99.90;;;;;;5069086;28;20040;-80
2022/04/09 00:47:51;;;;;;;0.10;0.10;;;3.70;99.90;;;;;;5069465;28;20490;-79
2022/04/09 00:50:18;;;;;;;0.20;0.20;;;4.00;99.90;;;;;;5069496;28;20040;-79
2022/04/09 00:52:50;;;;;;;0.10;0.10;;;4.50;99.90;;;;;;5055387;28;20048;-81
2022/04/09 00:58:14;;;;;;;0.10;0.10;;;3.70;99.90;;;;;;5085503;28;20045;-82
2022/04/09 01:00:42;;;;;;;0.20;0.20;;;3.70;99.90;;;;;;5085484;28;20048;-81
2022/04/09 01:03:16;;;;;;;0.20;0.20;;;3.70;99.90;;;;;;5069785;28;20045;-81
2022/04/09 01:05:43;;;;;;;0.10;0.10;;;3.70;99.90;;;;;;5073062;28;20037;-80
2022/04/09 01:08:10;;;;;;;0.10;0.10;;;3.70;99.90;;;;;;5072990;28;20040;-80
2022/04/09 01:10:37;;;;;;;0.10;0.10;;;3.70;99.90;;;;;;5067894;28;20041;-80
2022/04/09 01:13:05;;;;;;;0.10;0.10;;;4.20;99.90;;;;;;5022705;28;20495;-79
2022/04/09 01:15:32;;;;;;;0.10;0.10;;;3.70;99.90;;;;;;5065283;28;20123;-81
2022/04/09 01:18:02;;;;;;;0.20;0.20;;;3.70;99.90;;;;;;5073249;28;20076;-81
2022/04/09 01:20:29;;;;;;;0.10;0.10;;;3.70;99.90;;;;;;5072978;28;20102;-80
2022/04/09 01:22:56;;;;;;;0.10;0.10;;;3.60;99.90;;;;;;5073046;28;20040;-81
2022/04/09 01:25:22;;;;;;;0.20;0.20;;;3.80;99.90;;;;;;5073128;28;20036;-80
2022/04/09 01:27:50;;;;;;;0.10;0.10;;;3.90;99.90;;;;;;5078014;28;20132;-80
2022/04/09 01:30:18;;;;;;;0.10;0.10;;;3.60;99.90;;;;;;5092672;28;20443;-80
2022/04/09 01:32:45;;;;;;;0.10;0.10;;;3.80;99.90;;;;;;5059513;28;20045;-81
2022/04/09 01:35:12;;;;;;;0.20;0.20;;;3.70;99.90;;;;;;5076118;28;20094;-80
2022/04/09 01:37:39;;;;;;;0.10;0.10;;;3.60;99.90;;;;;;5088265;28;20129;-81
2022/04/09 01:40:06;;;;;;;0.10;0.10;;;3.70;99.90;;;;;;5059834;28;20036;-79
2022/04/09 01:42:36;;;;;;;0.10;0.10;;;3.60;99.90;;;;;;5077795;28;20119;-81
2022/04/09 01:45:08;;;;;;;0.13;0.13;;;3.60;99.90;;;;;;5063452;28;20722;-82
2022/04/09 01:47:36;;;;;;;0.13;0.13;;;3.60;99.90;;;;;;5063193;28;20081;-82
2022/04/09 01:50:03;;;;;;;0.20;0.20;;;3.60;99.90;;;;;;5079703;28;20066;-82
2022/04/09 01:52:30;;;;;;;0.15;0.15;;;3.50;99.90;;;;;;5059567;28;20040;-81
2022/04/09 01:54:57;;;;;;;0.20;0.20;;;3.50;99.90;;;;;;5066539;28;20044;-80
2022/04/09 01:57:23;;;;;;;0.20;0.20;;;3.50;99.90;;;;;;5062789;28;20059;-82
2022/04/09 01:59:50;;;;;;;0.10;0.10;;;4.00;99.90;;;;;;5095983;28;20089;-80
2022/04/09 02:02:17;;;;;;;0.10;0.10;;;3.50;99.90;;;;;;5095666;28;20105;-80
2022/04/09 02:04:44;;;;;;;0.10;0.10;;;3.50;99.90;;;;;;5062572;28;20848;-82
2022/04/09 02:07:11;;;;;;;0.15;0.15;;;3.50;99.90;;;;;;5078904;28;20579;-81
2022/04/09 02:09:37;;;;;;;0.20;0.20;;;3.50;99.90;;;;;;5062641;28;20042;-82
2022/04/09 02:12:06;;;;;;;0.20;0.20;;;3.50;99.90;;;;;;5079015;28;20119;-82
2022/04/09 02:14:32;;;;;;;0.20;0.20;;;3.50;99.90;;;;;;5111709;28;20404;-82
2022/04/09 02:16:59;;;;;;;0.20;0.20;;;3.50;99.90;;;;;;5078496;28;20040;-82
2022/04/09 02:19:26;;;;;;;0.20;0.20;;;3.60;99.90;;;;;;5062701;28;20043;-83
2022/04/09 02:21:52;;;;;;;0.10;0.10;;;3.60;99.90;;;;;;5060547;28;20421;-82
2022/04/09 02:24:19;;;;;;;0.10;0.10;;;3.70;99.90;;;;;;5058860;28;20048;-80
2022/04/09 02:26:46;;;;;;;0.10;0.10;;;3.70;99.90;;;;;;5075232;28;20133;-80
2022/04/09 02:29:12;;;;;;;0.20;0.20;;;3.60;99.90;;;;;;5061916;28;20056;-80
2022/04/09 02:31:39;;;;;;;0.10;0.10;;;3.90;99.90;;;;;;5065904;28;20438;-83
2022/04/09 02:34:06;;;;;;;0.20;0.20;;;3.90;99.90;;;;;;5058969;28;20064;-82
2022/04/09 02:36:32;;;;;;;0.20;0.20;;;3.50;99.90;;;;;;5075243;28;20524;-82
2022/04/09 02:38:59;;;;;;;0.10;0.10;;;4.20;99.90;;;;;;5074739;28;20492;-81
2022/04/09 02:41:28;;;;;;;0.20;0.20;;;3.40;99.90;;;;;;5085816;28;20044;-80
2022/04/09 02:43:55;;;;;;;0.10;0.10;;;4.20;99.90;;;;;;5078838;28;20047;-80
2022/04/09 02:46:22;;;;;;;0.20;0.20;;;3.60;99.90;;;;;;5095000;28;20043;-81
2022/04/09 02:48:49;;;;;;;0.20;0.20;;;3.30;99.90;;;;;;5078336;28;20040;-81
2022/04/09 02:51:16;;;;;;;0.20;0.20;;;4.10;99.90;;;;;;5099763;28;20036;-80
2022/04/09 02:53:43;;;;;;;0.20;0.20;;;3.20;99.90;;;;;;5061935;28;20043;-80
2022/04/09 02:56:10;;;;;;;0.20;0.20;;;3.20;99.90;;;;;;5058581;28;20386;-82
2022/04/09 02:58:38;;;;;;;0.20;0.20;;;3.20;99.90;;;;;;5069142;28;20040;-82
2022/04/09 03:01:06;;;;;;;0.20;0.20;;;3.20;99.90;;;;;;5041478;28;20040;-81
2022/04/09 03:03:32;;;;;;;0.20;0.20;;;3.20;99.90;;;;;;5058137;28;20036;-81
2022/04/09 03:05:59;;;;;;;0.20;0.20;;;3.30;99.90;;;;;;5081735;28;20055;-80
2022/04/09 03:08:26;;;;;;;0.15;0.15;;;3.20;99.90;;;;;;5061437;28;20050;-83
2022/04/09 03:10:53;;;;;;;0.15;0.15;;;3.20;99.90;;;;;;5078047;28;20040;-82
2022/04/09 03:13:20;;;;;;;0.20;0.20;;;3.20;99.90;;;;;;5061249;28;20096;-81
2022/04/09 03:15:47;;;;;;;0.10;0.10;;;3.10;99.90;;;;;;5061149;28;20119;-82
2022/04/09 03:18:13;;;;;;;0.10;0.10;;;3.10;99.90;;;;;;5089214;28;20036;-82
2022/04/09 03:20:40;;;;;;;0.20;0.20;;;3.50;99.90;;;;;;5085866;28;20075;-82
2022/04/09 03:23:07;;;;;;;0.20;0.20;;;3.10;99.90;;;;;;5060879;28;20462;-82
2022/04/09 03:25:33;;;;;;;0.17;0.17;;;3.50;99.90;;;;;;5061421;28;20101;-80
2022/04/09 03:28:00;;;;;;;0.20;0.20;;;3.00;99.90;;;;;;5069142;28;20528;-82
2022/04/09 03:30:27;;;;;;;0.10;0.10;;;3.30;99.90;;;;;;5067086;28;20045;-82
2022/04/09 03:32:54;;;;;;;0.10;0.10;;;3.10;99.90;;;;;;5034110;28;20081;-81
2022/04/09 03:35:21;;;;;;;0.20;0.20;;;3.10;99.90;;;;;;5034330;28;20045;-80
2022/04/09 03:37:48;;;;;;;0.20;0.20;;;3.10;99.90;;;;;;5033928;28;20044;-83
2022/04/09 03:40:14;;;;;;;0.10;0.10;;;3.20;99.90;;;;;;5050553;28;20042;-82
2022/04/09 03:42:41;;;;;;;0.15;0.15;;;3.40;99.90;;;;;;5060584;28;20040;-80
2022/04/09 03:45:09;;;;;;;0.20;0.20;;;3.10;99.90;;;;;;5086057;28;20508;-81
2022/04/09 03:47:35;;;;;;;0.20;0.20;;;3.20;99.90;;;;;;5037679;28;20040;-80
2022/04/09 03:50:04;;;;;;;0.10;0.10;;;3.20;99.90;;;;;;5037453;28;20059;-82
2022/04/09 03:52:31;;;;;;;0.20;0.20;;;3.20;99.90;;;;;;5037961;28;20041;-81
2022/04/09 03:54:57;;;;;;;0.20;0.20;;;3.60;99.90;;;;;;5055801;28;20405;-82
2022/04/09 03:57:24;;;;;;;0.20;0.20;;;3.20;99.90;;;;;;5066830;28;20037;-81
2022/04/09 03:59:55;;;;;;;0.20;0.20;;;3.70;99.90;;;;;;5049736;28;20041;-81
2022/04/09 04:02:23;;;;;;;0.20;0.20;;;3.30;99.90;;;;;;5050058;28;20042;-81
2022/04/09 04:04:49;;;;;;;0.20;0.20;;;3.40;99.90;;;;;;5058156;28;20045;-81
2022/04/09 04:07:23;;;;;;;0.20;0.20;;;3.30;99.90;;;;;;5037300;28;20041;-81
2022/04/09 04:09:50;;;;;;;0.10;0.10;;;3.80;99.90;;;;;;5051702;28;20592;-81
2022/04/09 04:12:17;;;;;;;0.20;0.20;;;3.50;99.90;;;;;;5037068;28;20408;-82
2022/04/09 04:14:44;;;;;;;0.20;0.20;;;3.10;99.90;;;;;;5035196;28;20037;-83
2022/04/09 04:17:12;;;;;;;0.20;0.20;;;3.20;99.90;;;;;;5053852;28;20033;-82
2022/04/09 04:19:39;;;;;;;0.10;0.10;;;3.10;99.90;;;;;;5053921;28;20037;-80
2022/04/09 04:22:07;;;;;;;0.20;0.20;;;3.20;99.90;;;;;;5074012;28;20037;-82
2022/04/09 04:24:37;;;;;;;0.20;0.20;;;3.70;99.90;;;;;;5070285;28;20033;-80
2022/04/09 04:27:05;;;;;;;0.20;0.20;;;3.20;99.90;;;;;;5062864;28;20052;-80
2022/04/09 04:29:33;;;;;;;0.17;0.17;;;3.10;99.90;;;;;;5072187;28;20568;-80
2022/04/09 04:32:01;;;;;;;0.20;0.20;;;3.10;99.90;;;;;;5040934;28;20071;-80
2022/04/09 04:34:28;;;;;;;0.10;0.10;;;3.10;99.90;;;;;;5034218;28;20072;-82
2022/04/09 04:36:54;;;;;;;0.20;0.20;;;3.00;99.90;;;;;;5050187;28;20549;-82
2022/04/09 04:39:21;;;;;;;0.20;0.20;;;3.00;99.90;;;;;;5067802;28;20044;-82
2022/04/09 04:41:48;;;;;;;0.20;0.20;;;3.00;99.90;;;;;;5047983;28;20064;-83
2022/04/09 04:44:14;;;;;;;0.20;0.20;;;2.90;99.90;;;;;;5060422;28;20037;-82
2022/04/09 04:46:41;;;;;;;0.20;0.20;;;2.80;99.90;;;;;;5035456;28;20517;-80
2022/04/09 04:49:08;;;;;;;0.20;0.20;;;3.30;99.90;;;;;;5052365;28;20044;-80
2022/04/09 04:51:35;;;;;;;0.20;0.20;;;3.10;99.90;;;;;;5050085;28;20025;-80
2022/04/09 04:54:03;;;;;;;0.20;0.20;;;3.00;99.90;;;;;;5023080;28;20494;-82
2022/04/09 04:56:30;;;;;;;0.20;0.20;;;3.00;99.90;;;;;;5073331;28;20037;-82
2022/04/09 04:58:57;;;;;;;0.10;0.10;;;3.00;99.90;;;;;;5064227;28;20045;-81
2022/04/09 05:01:24;;;;;;;0.20;0.20;;;3.20;99.90;;;;;;5068592;28;20070;-82
2022/04/09 05:03:50;;;;;;;0.20;0.20;;;3.00;99.90;;;;;;5045389;28;20044;-82
2022/04/09 05:06:17;;;;;;;0.20;0.20;;;3.00;99.90;;;;;;5040130;28;20124;-83
2022/04/09 05:08:45;;;;;;;0.20;0.20;;;3.00;99.90;;;;;;5043989;28;20044;-83
2022/04/09 05:11:12;;;;;;;0.20;0.20;;;3.40;99.90;;;;;;5047031;28;20045;-81
2022/04/09 05:13:38;;;;;;;0.20;0.20;;;3.00;99.90;;;;;;5031318;28;20052;-82
2022/04/09 05:16:05;;;;;;;0.10;0.10;;;3.10;99.90;;;;;;5032429;28;20091;-82
2022/04/09 05:18:33;;;;;;;0.20;0.20;;;3.00;99.90;;;;;;5063130;28;20049;-80
2022/04/09 05:20:59;;;;;;;0.22;0.22;;;3.00;99.90;;;;;;5065401;28;20040;-80
2022/04/09 05:23:26;;;;;;;0.20;0.20;;;3.00;99.90;;;;;;5073397;28;20032;-83
2022/04/09 05:25:53;;;;;;;0.20;0.20;;;3.00;99.90;;;;;;5039301;28;20037;-81
2022/04/09 05:28:20;;;;;;;0.20;0.20;;;3.40;99.90;;;;;;5072354;28;20054;-81
2022/04/09 05:30:46;;;;;;;0.10;0.10;;;3.10;99.90;;;;;;5035920;28;20104;-82
2022/04/09 05:33:13;;;;;;;0.10;0.10;;;3.10;99.90;;;;;;5052437;28;20440;-79
2022/04/09 05:35:40;;;;;;;0.20;0.20;;;3.10;99.90;;;;;;5042410;28;20414;-82
2022/04/09 05:38:09;;;;;;;0.17;0.17;;;3.70;99.90;;;;;;5041765;28;20041;-82
2022/04/09 05:40:36;;;;;;;0.20;0.20;;;3.90;99.90;;;;;;5048362;28;20032;-80
2022/04/09 05:43:03;;;;;;;0.10;0.10;;;3.30;99.90;;;;;;5051675;28;20549;-81
2022/04/09 05:45:30;;;;;;;0.17;0.17;;;3.40;99.90;;;;;;5078683;28;20052;-79
2022/04/09 05:47:57;;;;;;;0.10;0.10;;;4.20;99.90;;;;;;5038961;28;20037;-81
2022/04/09 05:50:23;;;;;;;0.20;0.20;;;3.60;99.90;;;;;;5033078;28;20037;-81
2022/04/09 05:52:50;;;;;;;0.10;0.10;;;3.50;99.90;;;;;;5030232;28;20121;-81
2022/04/09 05:55:17;;;;;;;0.10;0.10;;;3.50;99.90;;;;;;5077292;28;20041;-79
2022/04/09 05:57:44;;;;;;;0.10;0.10;;;3.60;99.90;;;;;;5045656;28;20041;-81
2022/04/09 06:00:13;;;;;;;0.10;0.10;;;3.60;99.90;;;;;;5075293;28;20037;-81
2022/04/09 06:02:39;;;;;;;0.10;0.10;;;3.70;99.90;;;;;;5041329;28;20038;-81
2022/04/09 06:05:07;;;;;;;0.10;0.10;;;3.70;99.90;;;;;;5062297;28;20044;-82
2022/04/09 06:07:34;;;;;;;0.20;0.20;;;3.70;99.90;;;;;;5077670;28;20041;-80
2022/04/09 06:10:03;;;;;;;0.10;0.10;;;4.10;99.90;;;;;;5061103;28;20041;-80
2022/04/09 06:12:30;;;;;;;0.20;0.20;;;3.70;99.90;;;;;;5054157;28;20041;-82
2022/04/09 06:14:57;;;;;;;0.10;0.10;;;3.70;99.90;;;;;;5041194;28;20111;-82
2022/04/09 06:17:26;;;;;;;0.20;0.20;;;3.70;99.90;;;;;;5030848;28;20034;-80
2022/04/09 06:19:54;;;;;;;0.20;0.20;;;3.80;99.90;;;;;;5051758;28;20033;-80
2022/04/09 06:22:20;;;;;;;0.20;0.20;;;3.70;99.90;;;;;;5051987;28;20040;-80
2022/04/09 06:24:47;;;;;;;0.20;0.20;;;3.80;99.90;;;;;;5038677;28;20045;-82
2022/04/09 06:27:14;;;;;;;0.10;0.10;;;4.10;99.90;;;;;;5040786;28;20037;-82
2022/04/09 06:29:40;;;;;;;0.10;0.10;;;3.80;99.90;;;;;;5066559;28;20457;-82
2022/04/09 06:32:07;;;;;;;0.20;0.20;;;3.90;99.90;;;;;;5055900;28;20048;-82
2022/04/09 06:34:34;;;;;;;0.15;0.15;;;4.00;99.90;;;;;;5055024;28;20040;-82
2022/04/09 06:37:01;;;;;;;0.17;0.17;;;4.00;99.90;;;;;;5071297;28;20508;-82
2022/04/09 06:39:27;;;;;;;0.20;0.20;;;4.20;99.90;;;;;;5071507;28;20056;-80
2022/04/09 06:41:54;;;;;;;0.20;0.20;;;4.20;99.90;;;;;;5060796;28;20418;-82
2022/04/09 06:44:21;;;;;;;0.20;0.20;;;4.20;99.90;;;;;;5068492;28;20076;-82
2022/04/09 06:46:47;;;;;;;0.10;0.10;;;4.30;99.90;;;;;;5058228;28;20041;-82
2022/04/09 06:49:14;;;;;;;0.10;0.10;;;4.20;99.90;;;;;;5075546;28;20046;-82
2022/04/09 06:51:41;;;;;;;0.20;0.20;;;4.20;99.90;;;;;;5042867;28;20037;-82
2022/04/09 06:54:09;;;;;;;0.10;0.10;;;4.20;99.90;;;;;;5059752;28;20044;-82
2022/04/09 06:56:38;;;;;;;0.10;0.10;;;4.70;99.90;;;;;;5059745;28;20045;-82
2022/04/09 06:59:06;;;;;;;0.10;0.10;;;4.30;99.90;;;;;;5065907;28;20029;-82
2022/04/09 07:01:32;;;;;;;0.10;0.10;;;4.30;99.90;;;;;;5041743;28;20087;-82
2022/04/09 07:04:00;;;;;;;0.10;0.10;;;4.60;99.90;;;;;;5044176;28;20041;-80
2022/04/09 07:06:27;;;;;;;0.15;0.15;;;4.50;99.90;;;;;;5043963;28;20049;-83
2022/04/09 07:08:54;;;;;;;0.10;0.10;;;4.70;99.90;;;;;;5055975;28;20045;-80
2022/04/09 07:11:21;;;;;;;0.10;0.10;;;4.90;99.90;;;;;;5049597;28;20037;-80
2022/04/09 07:13:47;;;;;;;0.20;0.20;;;5.10;99.90;;;;;;5062668;28;20429;-82
2022/04/09 07:16:14;;;;;;;0.10;0.10;;;5.20;99.90;;;;;;5037231;28;20495;-81
2022/04/09 07:18:41;;;;;;;0.20;0.20;;;5.40;99.90;;;;;;5045646;28;20550;-81
2022/04/09 07:21:08;;;;;;;0.10;0.10;;;5.20;99.90;;;;;;5050724;28;20120;-81
2022/04/09 07:23:34;;;;;;;0.10;0.10;;;5.40;99.90;;;;;;5044577;28;20554;-83
2022/04/09 07:26:01;;;;;;;0.10;0.10;;;5.20;99.90;;;;;;5055185;28;20041;-82
2022/04/09 07:28:28;;;;;;;0.10;0.10;;;5.10;99.90;;;;;;5025834;28;20490;-84
2022/04/09 07:30:54;;;;;;;0.13;0.13;;;5.10;99.90;;;;;;5060303;28;20106;-81
2022/04/09 07:33:21;;;;;;;0.10;0.10;;;5.10;99.90;;;;;;5052075;28;20037;-81
2022/04/09 07:35:49;;;;;;;0.10;0.10;;;5.20;99.90;;;;;;5067448;28;20550;-81
2022/04/09 07:38:16;;;;;;;0.10;0.10;;;5.30;99.90;;;;;;5047122;28;20151;-83
2022/04/09 07:40:42;;;;;;;0.10;0.10;;;5.40;99.90;;;;;;5070368;28;20499;-82
2022/04/09 07:43:09;;;;;;;0.10;0.10;;;5.70;99.90;;;;;;5048460;28;20552;-82
2022/04/09 07:45:36;;;;;;;0.10;0.10;;;5.80;99.90;;;;;;5038669;28;20033;-80
2022/04/09 07:48:03;;;;;;;0.10;0.10;;;5.80;99.90;;;;;;5050817;28;20093;-82
2022/04/09 07:50:30;;;;;;;0.10;0.10;;;5.80;99.90;;;;;;5036148;28;20077;-82
2022/04/09 07:52:57;;;;;;;0.10;0.10;;;6.00;99.90;;;;;;5027555;28;20425;-83
2022/04/09 07:55:24;;;;;;;0.10;0.10;;;6.00;99.90;;;;;;5039998;28;20038;-82
2022/04/09 07:57:54;;;;;;;0.10;0.10;;;6.10;99.90;;;;;;5069861;28;20040;-80
2022/04/09 08:00:23;;;;;;;0.10;0.10;;;6.20;99.90;;;;;;5053528;28;20045;-82
2022/04/09 08:02:50;;;;;;;0.10;0.10;;;6.20;99.90;;;;;;5050148;28;20049;-82
2022/04/09 08:05:18;;;;;;;0.10;0.10;;;6.30;99.90;;;;;;5059290;28;20045;-80
2022/04/09 08:07:46;;;;;;;0.05;0.05;;;6.40;99.90;;;;;;5043887;28;20045;-81
2022/04/09 08:10:13;;;;;;;0.10;0.10;;;6.60;99.90;;;;;;5043121;28;20052;-81
2022/04/09 08:12:41;;;;;;;0.10;0.10;;;6.80;99.90;;;;;;5057154;28;20037;-81
2022/04/09 08:15:09;;;;;;;0.10;0.10;;;7.30;99.90;;;;;;5075754;28;20052;-80
2022/04/09 08:17:39;;;;;;;0.10;0.10;;;6.90;99.90;;;;;;5083294;28;20119;-82
2022/04/09 08:20:08;;;;;;;0.10;0.10;;;7.10;99.90;;;;;;5086054;28;20041;-82
2022/04/09 08:22:34;;;;;;;0.10;0.10;;;7.10;99.90;;;;;;5081968;28;20401;-82
2022/04/09 08:25:02;;;;;;;0.10;0.10;;;7.20;99.90;;;;;;5062295;28;20045;-80
2022/04/09 08:27:29;;;;;;;0.10;0.10;;;7.10;99.90;;;;;;5049130;28;20080;-82
2022/04/09 08:29:56;;;;;;;0.10;0.10;;;7.10;99.90;;;;;;5052598;28;20057;-80
2022/04/09 08:32:25;;;;;;;0.05;0.05;;;7.30;99.90;;;;;;5040113;28;20060;-80
2022/04/09 08:34:53;;;;;;;0.10;0.10;;;7.30;99.90;;;;;;5049622;28;20568;-80
2022/04/09 08:37:22;;;;;;;0.10;0.10;;;8.00;99.90;;;;;;5084270;28;20090;-82
2022/04/09 08:39:50;;;;;;;0.00;0.00;;;8.00;99.90;;;;;;5069216;28;20071;-84
2022/04/09 08:42:17;;;;;;;0.10;0.10;;;7.70;99.90;;;;;;5070002;28;20065;-82
2022/04/09 08:44:44;;;;;;;0.03;0.03;;;7.70;99.90;;;;;;5049211;28;20835;-82
2022/04/09 08:47:13;;;;;;;0.08;0.08;;;7.50;99.90;;;;;;5039817;28;20042;-81
2022/04/09 08:49:44;;;;;;;0.10;0.10;;;7.40;99.90;;;;;;5048981;28;20048;-82
2022/04/09 08:52:11;;;;;;;0.10;0.10;;;7.10;99.90;;;;;;5079740;28;20045;-83
2022/04/09 08:54:38;;;;;;;0.10;0.10;;;6.70;99.90;;;;;;5085193;28;20379;-81
2022/04/09 08:57:05;;;;;;;0.10;0.10;;;6.30;99.90;;;;;;5085490;28;20037;-81
2022/04/09 08:59:32;;;;;;;0.10;0.10;;;5.90;99.90;;;;;;5082529;28;20048;-81
2022/04/09 09:02:00;;;;;;;0.00;0.00;;;5.90;99.90;;;;;;5070109;28;20045;-83
2022/04/09 09:04:26;;;;;;;0.10;0.10;;;5.80;99.90;;;;;;5063085;28;20132;-82
2022/04/09 09:06:53;;;;;;;0.10;0.10;;;5.70;99.90;;;;;;5056235;28;20129;-82
2022/04/09 09:09:27;;;;;;;0.10;0.10;;;5.60;99.90;;;;;;5057436;28;20406;-83
2022/04/09 09:11:53;;;;;;;0.10;0.10;;;5.60;99.90;;;;;;5081502;28;20033;-82
2022/04/09 09:14:27;;;;;;;0.10;0.10;;;5.70;99.90;;;;;;5062327;28;20048;-82
2022/04/09 09:16:58;;;;;;;0.10;0.10;;;6.00;99.90;;;;;;5082800;28;20536;-83
2022/04/09 09:19:45;;;;;;;0.10;0.10;;;6.40;99.90;;;;;;5059380;28;20120;-82
2022/04/09 09:22:12;;;;;;;0.05;0.05;;;6.80;99.90;;;;;;5049199;28;20038;-82
2022/04/09 09:24:39;;;;;;;0.10;0.10;;;6.50;99.90;;;;;;5023359;28;20724;-82
2022/04/09 09:27:06;;;;;;;0.10;0.10;;;5.80;99.90;;;;;;5063286;28;20576;-83
2022/04/09 09:29:36;;;;;;;0.10;0.10;;;5.20;99.90;;;;;;5059066;28;20060;-82
2022/04/09 09:32:05;;;;;;;0.10;0.10;;;4.80;99.90;;;;;;5069286;28;20045;-82
2022/04/09 09:34:33;;;;;;;0.10;0.10;;;4.60;99.90;;;;;;5087605;28;20056;-83
2022/04/09 09:37:00;;;;;;;0.10;0.10;;;4.40;99.90;;;;;;5066799;28;20501;-82
2022/04/09 09:39:27;;;;;;;0.10;0.10;;;4.40;99.90;;;;;;5066115;28;20048;-82
2022/04/09 09:41:56;;;;;;;0.10;0.10;;;4.40;99.90;;;;;;5044674;28;20572;-83
2022/04/09 09:44:25;;;;;;;0.10;0.10;;;4.40;99.90;;;;;;5079734;28;20448;-83
2022/04/09 09:46:54;;;;;;;0.10;0.10;;;5.10;99.90;;;;;;5074432;28;20598;-83
2022/04/09 09:49:23;;;;;;;0.10;0.10;;;4.60;99.90;;;;;;5074566;28;20498;-83
2022/04/09 09:52:08;;;;;;;0.10;0.10;;;4.80;99.90;;;;;;5069237;28;20041;-83
2022/04/09 09:54:56;;;;;;;0.10;0.10;;;5.10;99.90;;;;;;5078222;28;20044;-83
2022/04/09 09:57:25;;;;;;;0.17;0.17;;;5.40;99.90;;;;;;5067309;28;20037;-82
2022/04/09 09:59:57;;;;;;;0.20;0.20;;;5.60;99.90;;;;;;5046992;28;20037;-81
2022/04/09 10:02:25;;;;;;;0.10;0.10;;;5.80;99.90;;;;;;5054073;28;20395;-83
2022/04/09 10:04:53;;;;;;;0.10;0.10;;;5.90;99.90;;;;;;5048538;28;20049;-81
2022/04/09 10:07:20;;;;;;;0.10;0.10;;;6.20;99.90;;;;;;5047500;28;20041;-81
2022/04/09 10:09:49;;;;;;;0.10;0.10;;;6.40;99.90;;;;;;5067332;28;20099;-82
2022/04/09 10:12:21;;;;;;;0.10;0.10;;;6.70;99.90;;;;;;5063504;28;20037;-82
2022/04/09 10:14:53;;;;;;;0.10;0.10;;;7.00;99.90;;;;;;5062525;28;20045;-83
2022/04/09 10:17:21;;;;;;;0.13;0.13;;;7.40;99.90;;;;;;5071555;28;20037;-81
2022/04/09 10:20:01;;;;;;;0.10;0.10;;;7.70;99.90;;;;;;5035534;28;20037;-83
2022/04/09 10:22:43;;;;;;;0.10;0.10;;;7.50;99.90;;;;;;5050478;28;20406;-82
2022/04/09 10:25:10;;;;;;;0.10;0.10;;;6.60;99.90;;;;;;5076409;28;20037;-83
2022/04/09 10:27:52;;;;;;;0.03;0.03;;;6.10;99.90;;;;;;5034512;28;20418;-83
2022/04/09 10:30:21;;;;;;;0.00;0.00;;;5.80;99.90;;;;;;5085055;28;20071;-81
2022/04/09 10:32:51;;;;;;;0.10;0.10;;;5.70;99.90;;;;;;5048608;28;20109;-82
2022/04/09 10:35:40;;;;;;;0.10;0.10;;;5.80;99.90;;;;;;5052627;28;20037;-84
2022/04/09 10:38:10;;;;;;;0.10;0.10;;;5.70;99.90;;;;;;5040379;28;20040;-83
2022/04/09 10:41:02;;;;;;;0.10;0.10;;;5.90;99.90;;;;;;5065164;28;20145;-83
2022/04/09 10:43:38;;;;;;;0.10;0.10;;;6.10;99.90;;;;;;5079479;28;20048;-82
2022/04/09 10:46:05;;;;;;;0.10;0.10;;;6.40;99.90;;;;;;5052244;28;20076;-82
2022/04/09 10:48:35;;;;;;;0.10;0.10;;;6.60;99.90;;;;;;5077768;28;20091;-85
2022/04/09 10:51:08;;;;;;;0.10;0.10;;;6.80;99.90;;;;;;5077852;28;20073;-83
2022/04/09 10:53:38;;;;;;;0.10;0.10;;;6.90;99.90;;;;;;5066355;28;20099;-84
2022/04/09 10:56:25;;;;;;;0.10;0.10;;;7.00;99.90;;;;;;5051002;28;20094;-83
2022/04/09 10:59:05;;;;;;;0.10;0.10;;;7.10;99.90;;;;;;5058779;28;20120;-82
2022/04/09 11:01:50;;;;;;;0.10;0.10;;;7.10;99.90;;;;;;5051886;28;20079;-82
2022/04/09 11:04:34;;;;;;;0.10;0.10;;;7.20;99.90;;;;;;5050836;28;20053;-81
2022/04/09 11:07:15;;;;;;;0.10;0.10;;;7.20;99.90;;;;;;5050849;28;20116;-81
2022/04/09 11:09:56;;;;;;;0.10;0.10;;;7.30;99.90;;;;;;5057693;28;20048;-81
2022/04/09 11:12:26;;;;;;;0.10;0.10;;;7.30;99.90;;;;;;5075566;28;20044;-81
2022/04/09 11:15:11;;;;;;;0.10;0.10;;;7.30;99.90;;;;;;5075160;28;20052;-83
2022/04/09 11:17:43;;;;;;;0.10;0.10;;;7.50;99.90;;;;;;5066749;28;20095;-83
2022/04/09 11:20:23;;;;;;;0.10;0.10;;;7.50;99.90;;;;;;5070873;28;20063;-84
2022/04/09 11:22:52;;;;;;;0.10;0.10;;;7.60;99.90;;;;;;5050841;28;20119;-84
2022/04/09 11:25:24;;;;;;;0.10;0.10;;;7.70;99.90;;;;;;5060730;28;20777;-81
2022/04/09 11:27:53;;;;;;;0.10;0.10;;;7.70;99.90;;;;;;5085603;28;20044;-81
2022/04/09 11:30:20;;;;;;;0.10;0.10;;;7.80;99.90;;;;;;5103315;28;20454;-81
2022/04/09 11:32:47;;;;;;;0.10;0.10;;;8.00;99.90;;;;;;5074211;28;20040;-83
2022/04/09 11:35:16;;;;;;;0.08;0.08;;;8.00;99.90;;;;;;5081176;28;20068;-83
2022/04/09 11:37:45;;;;;;;0.10;0.10;;;8.10;99.90;;;;;;5071529;28;20031;-81
2022/04/09 11:40:14;;;;;;;0.10;0.10;;;8.10;99.90;;;;;;5077101;28;20040;-84
2022/04/09 11:42:55;;;;;;;0.10;0.10;;;8.20;99.90;;;;;;5073004;28;20032;-81
2022/04/09 11:45:31;;;;;;;0.10;0.10;;;8.40;99.90;;;;;;5070445;28;20426;-80
2022/04/09 11:48:00;;;;;;;0.10;0.10;;;8.50;99.90;;;;;;5075263;28;20474;-81
2022/04/09 11:50:31;;;;;;;0.10;0.10;;;8.70;99.90;;;;;;5087072;28;20036;-84
2022/04/09 11:53:22;;;;;;;0.10;0.10;;;8.70;99.90;;;;;;5100085;28;20040;-81
2022/04/09 11:55:57;;;;;;;0.00;0.00;;;8.80;99.90;;;;;;5070001;28;20135;-81
2022/04/09 11:58:29;;;;;;;;;;;8.80;99.90;;;;;;5086050;28;20086;-81
2022/04/09 12:00:57;;;;;;;0.10;0.10;;;9.00;99.90;;;;;;5087813;28;19917;-81
2022/04/09 12:03:23;;;;;;;0.00;0.00;;;9.10;99.90;;;;;;5081517;28;20040;-81
2022/04/09 12:05:51;;;;;;;0.10;0.10;;;9.30;99.90;;;;;;5065622;28;20041;-81
2022/04/09 12:08:21;;;;;;;0.10;0.10;;;9.30;99.90;;;;;;5090309;28;20039;-81
2022/04/09 12:10:53;;;;;;;0.00;0.00;;;9.10;99.90;;;;;;5109387;28;20032;-83
2022/04/09 12:13:30;;;;;;;0.10;0.10;;;9.10;99.90;;;;;;5092538;28;20496;-83
2022/04/09 12:16:14;;;;;;;0.00;0.00;;;9.10;99.90;;;;;;5082205;28;20128;-81
2022/04/09 12:18:42;;;;;;;0.10;0.10;;;9.10;99.90;;;;;;5074643;28;20037;-81
2022/04/09 12:21:19;;;;;;;0.00;0.00;;;8.90;99.90;;;;;;5089643;28;20032;-81
2022/04/09 12:23:46;;;;;;;0.10;0.10;;;8.50;99.90;;;;;;5073401;28;20222;-83
2022/04/09 12:26:24;;;;;;;0.00;0.00;;;8.50;99.90;;;;;;5093434;28;20032;-85
2022/04/09 12:29:10;;;;;;;0.00;0.00;;;8.50;99.90;;;;;;5092951;28;20507;-82
2022/04/09 12:31:41;;;;;;;0.10;0.10;;;8.30;99.90;;;;;;5099719;28;20047;-89
2022/04/09 12:34:08;;;;;;;0.00;0.00;;;8.60;99.90;;;;;;5077838;28;20070;-86
2022/04/09 12:36:41;;;;;;;0.10;0.10;;;8.40;99.90;;;;;;5076507;28;20539;-83
2022/04/09 12:39:24;;;;;;;0.10;0.10;;;8.40;99.90;;;;;;5102288;28;20052;-85
2022/04/09 12:41:51;;;;;;;0.00;0.00;;;8.30;99.90;;;;;;5089488;28;20454;-87
2022/04/09 12:44:28;;;;;;;0.00;0.00;;;8.00;99.90;;;;;;5056631;28;20074;-85
2022/04/09 12:47:02;;;;;;;0.00;0.00;;;7.70;99.90;;;;;;5089444;28;20423;-83
2022/04/09 12:49:40;;;;;;;0.10;0.10;;;7.50;99.90;;;;;;5073006;28;20489;-84
2022/04/09 12:52:09;;;;;;;0.10;0.10;;;7.40;99.90;;;;;;5073022;28;20040;-86
2022/04/09 12:54:36;;;;;;;0.10;0.10;;;7.30;99.90;;;;;;5089657;28;20036;-86
2022/04/09 12:57:08;;;;;;;0.10;0.10;;;7.50;99.90;;;;;;5056562;28;20032;-86
2022/04/09 12:59:35;;;;;;;0.10;0.10;;;7.80;99.90;;;;;;5091148;28;20068;-85
2022/04/09 13:02:03;;;;;;;0.10;0.10;;;7.90;99.90;;;;;;5060929;28;20040;-86
2022/04/09 13:04:29;;;;;;;0.10;0.10;;;8.00;99.90;;;;;;5077286;28;20048;-84
2022/04/09 13:06:56;;;;;;;0.10;0.10;;;7.90;99.90;;;;;;5060427;28;20101;-87
2022/04/09 13:09:23;;;;;;;0.05;0.05;;;7.80;99.90;;;;;;5084278;28;20041;-85